sensor_id;sensor_type;location;lat;lon;timestamp;P1;durP1;ratioP1;P2;durP2;ratioP2
80315;SDS011;71201;47.064;15.448;2023-11-21T00:04:00;23.17;;;12.20;;
80315;SDS011;71201;47.064;15.448;2023-11-21T00:09:47;25.23;;;12.45;;
80315;SDS011;71201;47.064;15.448;2023-11-21T00:17:09;23.83;;;10.13;;
80315;SDS011;71201;47.064;15.448;2023-11-21T00:22:02;20.63;;;11.27;;
80315;SDS011;71201;47.064;15.448;2023-11-21T00:32:04;23.77;;;12.27;;
80315;SDS011;71201;47.064;15.448;2023-11-21T00:36:53;20.90;;;11.05;;
80315;SDS011;71201;47.064;15.448;2023-11-21T00:44:29;20.83;;;12.13;;
80315;SDS011;71201;47.064;15.448;2023-11-21T01:01:37;23.67;;;10.02;;
80315;SDS011;71201;47.064;15.448;2023-11-21T01:13:41;19.52;;;8.70;;
80315;SDS011;71201;47.064;15.448;2023-11-21T01:24:06;17.23;;;9.55;;
80315;SDS011;71201;47.064;15.448;2023-11-21T01:31:47;21.48;;;9.57;;
80315;SDS011;71201;47.064;15.448;2023-11-21T01:37:18;15.95;;;8.77;;
80315;SDS011;71201;47.064;15.448;2023-11-21T01:47:25;15.48;;;8.25;;
80315;SDS011;71201;47.064;15.448;2023-11-21T01:54:29;15.90;;;7.80;;
80315;SDS011;71201;47.064;15.448;2023-11-21T02:09:14;14.02;;;7.07;;
80315;SDS011;71201;47.064;15.448;2023-11-21T02:16:35;11.90;;;5.70;;
80315;SDS011;71201;47.064;15.448;2023-11-21T02:30:30;10.77;;;5.97;;
80315;SDS011;71201;47.064;15.448;2023-11-21T02:49:55;7.72;;;4.07;;
80315;SDS011;71201;47.064;15.448;2023-11-21T03:03:10;8.05;;;3.47;;
80315;SDS011;71201;47.064;15.448;2023-11-21T03:13:26;6.63;;;3.83;;
80315;SDS011;71201;47.064;15.448;2023-11-21T03:25:45;6.50;;;2.67;;
80315;SDS011;71201;47.064;15.448;2023-11-21T03:41:57;4.57;;;2.50;;
80315;SDS011;71201;47.064;15.448;2023-11-21T03:44:23;6.10;;;2.97;;
80315;SDS011;71201;47.064;15.448;2023-11-21T03:46:48;8.27;;;3.00;;
80315;SDS011;71201;47.064;15.448;2023-11-21T03:49:13;6.93;;;2.80;;
80315;SDS011;71201;47.064;15.448;2023-11-21T03:51:38;5.22;;;3.00;;
80315;SDS011;71201;47.064;15.448;2023-11-21T03:54:04;6.17;;;2.90;;
80315;SDS011;71201;47.064;15.448;2023-11-21T03:56:29;6.25;;;2.22;;
80315;SDS011;71201;47.064;15.448;2023-11-21T03:58:55;4.90;;;2.40;;
80315;SDS011;71201;47.064;15.448;2023-11-21T04:01:21;4.63;;;2.50;;
80315;SDS011;71201;47.064;15.448;2023-11-21T04:12:49;4.57;;;2.80;;
80315;SDS011;71201;47.064;15.448;2023-11-21T04:20:40;7.80;;;2.92;;
80315;SDS011;71201;47.064;15.448;2023-11-21T04:26:57;6.43;;;3.30;;
80315;SDS011;71201;47.064;15.448;2023-11-21T04:42:14;8.20;;;3.05;;
80315;SDS011;71201;47.064;15.448;2023-11-21T04:44:39;6.97;;;3.67;;
80315;SDS011;71201;47.064;15.448;2023-11-21T04:47:06;6.35;;;3.97;;
80315;SDS011;71201;47.064;15.448;2023-11-21T04:49:31;6.90;;;3.05;;
80315;SDS011;71201;47.064;15.448;2023-11-21T04:51:56;6.70;;;3.83;;
80315;SDS011;71201;47.064;15.448;2023-11-21T04:54:21;7.27;;;3.50;;
80315;SDS011;71201;47.064;15.448;2023-11-21T04:56:47;7.80;;;3.57;;
80315;SDS011;71201;47.064;15.448;2023-11-21T04:59:12;5.90;;;3.30;;
80315;SDS011;71201;47.064;15.448;2023-11-21T05:01:37;7.13;;;3.90;;
80315;SDS011;71201;47.064;15.448;2023-11-21T05:04:04;5.22;;;3.13;;
80315;SDS011;71201;47.064;15.448;2023-11-21T05:06:31;5.70;;;3.35;;
80315;SDS011;71201;47.064;15.448;2023-11-21T05:08:56;6.22;;;3.00;;
80315;SDS011;71201;47.064;15.448;2023-11-21T05:11:25;6.10;;;3.43;;
80315;SDS011;71201;47.064;15.448;2023-11-21T05:13:50;7.88;;;4.30;;
80315;SDS011;71201;47.064;15.448;2023-11-21T05:16:15;6.83;;;3.17;;
80315;SDS011;71201;47.064;15.448;2023-11-21T05:18:41;7.47;;;3.27;;
80315;SDS011;71201;47.064;15.448;2023-11-21T05:21:06;7.15;;;3.05;;
80315;SDS011;71201;47.064;15.448;2023-11-21T05:23:32;7.70;;;3.42;;
80315;SDS011;71201;47.064;15.448;2023-11-21T05:25:57;7.75;;;3.63;;
80315;SDS011;71201;47.064;15.448;2023-11-21T05:28:22;8.63;;;5.30;;
80315;SDS011;71201;47.064;15.448;2023-11-21T05:30:48;8.40;;;4.30;;
80315;SDS011;71201;47.064;15.448;2023-11-21T05:33:15;10.43;;;4.97;;
80315;SDS011;71201;47.064;15.448;2023-11-21T05:35:40;9.03;;;5.33;;
80315;SDS011;71201;47.064;15.448;2023-11-21T05:38:05;9.20;;;5.90;;
80315;SDS011;71201;47.064;15.448;2023-11-21T05:40:30;10.97;;;6.57;;
80315;SDS011;71201;47.064;15.448;2023-11-21T05:42:56;9.97;;;5.27;;
80315;SDS011;71201;47.064;15.448;2023-11-21T05:45:21;10.75;;;6.30;;
80315;SDS011;71201;47.064;15.448;2023-11-21T05:47:46;10.73;;;5.83;;
80315;SDS011;71201;47.064;15.448;2023-11-21T05:50:13;13.80;;;6.07;;
80315;SDS011;71201;47.064;15.448;2023-11-21T05:52:42;11.20;;;6.00;;
80315;SDS011;71201;47.064;15.448;2023-11-21T05:55:08;12.23;;;6.68;;
80315;SDS011;71201;47.064;15.448;2023-11-21T05:57:34;13.38;;;6.40;;
80315;SDS011;71201;47.064;15.448;2023-11-21T06:00:02;13.25;;;7.22;;
80315;SDS011;71201;47.064;15.448;2023-11-21T06:02:35;11.25;;;6.30;;
80315;SDS011;71201;47.064;15.448;2023-11-21T06:05:01;11.90;;;6.00;;
80315;SDS011;71201;47.064;15.448;2023-11-21T06:07:26;11.07;;;6.40;;
80315;SDS011;71201;47.064;15.448;2023-11-21T06:09:51;12.23;;;6.03;;
80315;SDS011;71201;47.064;15.448;2023-11-21T06:12:16;13.30;;;8.33;;
80315;SDS011;71201;47.064;15.448;2023-11-21T06:14:42;13.63;;;6.70;;
80315;SDS011;71201;47.064;15.448;2023-11-21T06:17:07;13.23;;;6.27;;
80315;SDS011;71201;47.064;15.448;2023-11-21T06:19:32;13.93;;;6.67;;
80315;SDS011;71201;47.064;15.448;2023-11-21T06:21:57;12.70;;;5.90;;
80315;SDS011;71201;47.064;15.448;2023-11-21T06:24:22;12.07;;;7.03;;
80315;SDS011;71201;47.064;15.448;2023-11-21T06:26:48;13.10;;;6.67;;
80315;SDS011;71201;47.064;15.448;2023-11-21T06:29:13;12.90;;;7.93;;
80315;SDS011;71201;47.064;15.448;2023-11-21T06:31:39;11.27;;;6.50;;
80315;SDS011;71201;47.064;15.448;2023-11-21T06:34:05;12.15;;;6.03;;
80315;SDS011;71201;47.064;15.448;2023-11-21T06:36:31;11.45;;;7.03;;
80315;SDS011;71201;47.064;15.448;2023-11-21T06:38:56;12.67;;;6.93;;
80315;SDS011;71201;47.064;15.448;2023-11-21T06:41:21;14.23;;;6.83;;
80315;SDS011;71201;47.064;15.448;2023-11-21T06:43:47;13.93;;;7.60;;
80315;SDS011;71201;47.064;15.448;2023-11-21T06:46:13;11.68;;;6.35;;
80315;SDS011;71201;47.064;15.448;2023-11-21T06:48:43;13.68;;;7.38;;
80315;SDS011;71201;47.064;15.448;2023-11-21T06:51:08;16.85;;;7.90;;
80315;SDS011;71201;47.064;15.448;2023-11-21T06:53:33;13.27;;;6.90;;
80315;SDS011;71201;47.064;15.448;2023-11-21T06:55:59;13.23;;;6.75;;
80315;SDS011;71201;47.064;15.448;2023-11-21T06:58:24;14.45;;;7.70;;
80315;SDS011;71201;47.064;15.448;2023-11-21T07:00:49;12.17;;;6.97;;
80315;SDS011;71201;47.064;15.448;2023-11-21T07:03:15;15.45;;;9.13;;
80315;SDS011;71201;47.064;15.448;2023-11-21T07:05:40;13.83;;;7.57;;
80315;SDS011;71201;47.064;15.448;2023-11-21T07:08:05;17.95;;;8.98;;
80315;SDS011;71201;47.064;15.448;2023-11-21T07:10:32;13.55;;;7.90;;
80315;SDS011;71201;47.064;15.448;2023-11-21T07:12:57;13.80;;;7.30;;
80315;SDS011;71201;47.064;15.448;2023-11-21T07:25:34;15.70;;;5.60;;
80315;SDS011;71201;47.064;15.448;2023-11-21T07:33:28;7.88;;;5.03;;
80315;SDS011;71201;47.064;15.448;2023-11-21T07:44:37;6.65;;;3.60;;
80315;SDS011;71201;47.064;15.448;2023-11-21T07:50:24;6.68;;;2.85;;
80315;SDS011;71201;47.064;15.448;2023-11-21T08:01:17;8.10;;;3.90;;
80315;SDS011;71201;47.064;15.448;2023-11-21T08:07:19;9.45;;;3.53;;
80315;SDS011;71201;47.064;15.448;2023-11-21T08:15:39;8.40;;;4.15;;
80315;SDS011;71201;47.064;15.448;2023-11-21T08:18:05;9.00;;;3.95;;
80315;SDS011;71201;47.064;15.448;2023-11-21T08:20:32;7.90;;;3.40;;
80315;SDS011;71201;47.064;15.448;2023-11-21T08:22:58;8.63;;;3.08;;
80315;SDS011;71201;47.064;15.448;2023-11-21T08:25:23;9.80;;;4.27;;
80315;SDS011;71201;47.064;15.448;2023-11-21T08:27:48;6.47;;;3.90;;
80315;SDS011;71201;47.064;15.448;2023-11-21T08:30:14;8.15;;;4.75;;
80315;SDS011;71201;47.064;15.448;2023-11-21T08:32:39;8.90;;;4.63;;
80315;SDS011;71201;47.064;15.448;2023-11-21T08:35:06;8.32;;;3.97;;
80315;SDS011;71201;47.064;15.448;2023-11-21T08:37:32;8.77;;;4.55;;
80315;SDS011;71201;47.064;15.448;2023-11-21T08:39:58;9.80;;;4.53;;
80315;SDS011;71201;47.064;15.448;2023-11-21T08:42:24;8.48;;;4.88;;
80315;SDS011;71201;47.064;15.448;2023-11-21T08:44:50;7.83;;;4.67;;
80315;SDS011;71201;47.064;15.448;2023-11-21T08:47:16;8.57;;;4.55;;
80315;SDS011;71201;47.064;15.448;2023-11-21T08:49:41;8.60;;;4.80;;
80315;SDS011;71201;47.064;15.448;2023-11-21T08:52:07;8.65;;;4.53;;
80315;SDS011;71201;47.064;15.448;2023-11-21T08:54:32;8.80;;;4.50;;
80315;SDS011;71201;47.064;15.448;2023-11-21T08:56:59;10.80;;;4.65;;
80315;SDS011;71201;47.064;15.448;2023-11-21T08:59:24;6.97;;;4.10;;
80315;SDS011;71201;47.064;15.448;2023-11-21T09:01:50;7.15;;;3.95;;
80315;SDS011;71201;47.064;15.448;2023-11-21T09:04:15;8.15;;;4.63;;
80315;SDS011;71201;47.064;15.448;2023-11-21T09:06:41;15.00;;;6.47;;
80315;SDS011;71201;47.064;15.448;2023-11-21T09:09:06;8.07;;;4.37;;
80315;SDS011;71201;47.064;15.448;2023-11-21T09:11:33;6.65;;;3.55;;
80315;SDS011;71201;47.064;15.448;2023-11-21T09:13:58;7.03;;;4.30;;
80315;SDS011;71201;47.064;15.448;2023-11-21T09:16:24;7.18;;;3.90;;
80315;SDS011;71201;47.064;15.448;2023-11-21T09:18:49;7.80;;;4.25;;
80315;SDS011;71201;47.064;15.448;2023-11-21T09:21:15;7.30;;;3.60;;
80315;SDS011;71201;47.064;15.448;2023-11-21T09:23:40;8.17;;;4.17;;
80315;SDS011;71201;47.064;15.448;2023-11-21T09:26:06;6.50;;;3.95;;
80315;SDS011;71201;47.064;15.448;2023-11-21T09:28:31;6.70;;;3.80;;
80315;SDS011;71201;47.064;15.448;2023-11-21T09:30:56;6.97;;;3.77;;
80315;SDS011;71201;47.064;15.448;2023-11-21T09:33:22;9.88;;;4.93;;
80315;SDS011;71201;47.064;15.448;2023-11-21T09:35:49;8.25;;;4.55;;
80315;SDS011;71201;47.064;15.448;2023-11-21T09:38:15;8.77;;;4.85;;
80315;SDS011;71201;47.064;15.448;2023-11-21T09:40:41;8.73;;;4.47;;
80315;SDS011;71201;47.064;15.448;2023-11-21T09:43:07;9.33;;;4.10;;
80315;SDS011;71201;47.064;15.448;2023-11-21T09:45:34;6.20;;;4.03;;
80315;SDS011;71201;47.064;15.448;2023-11-21T09:48:00;9.15;;;4.85;;
80315;SDS011;71201;47.064;15.448;2023-11-21T09:50:25;9.73;;;4.15;;
80315;SDS011;71201;47.064;15.448;2023-11-21T09:52:58;10.52;;;5.18;;
80315;SDS011;71201;47.064;15.448;2023-11-21T09:55:26;6.78;;;4.47;;
80315;SDS011;71201;47.064;15.448;2023-11-21T09:57:53;6.60;;;3.95;;
80315;SDS011;71201;47.064;15.448;2023-11-21T10:00:19;7.05;;;3.70;;
80315;SDS011;71201;47.064;15.448;2023-11-21T10:02:48;7.15;;;3.97;;
80315;SDS011;71201;47.064;15.448;2023-11-21T10:05:15;8.38;;;4.13;;
80315;SDS011;71201;47.064;15.448;2023-11-21T10:07:43;9.95;;;4.28;;
80315;SDS011;71201;47.064;15.448;2023-11-21T10:10:09;7.50;;;3.28;;
80315;SDS011;71201;47.064;15.448;2023-11-21T10:12:35;5.68;;;3.17;;
80315;SDS011;71201;47.064;15.448;2023-11-21T10:15:00;10.10;;;4.23;;
80315;SDS011;71201;47.064;15.448;2023-11-21T10:17:27;7.78;;;4.32;;
80315;SDS011;71201;47.064;15.448;2023-11-21T10:19:55;7.22;;;3.78;;
80315;SDS011;71201;47.064;15.448;2023-11-21T10:22:22;8.65;;;3.55;;
80315;SDS011;71201;47.064;15.448;2023-11-21T10:24:48;6.20;;;3.45;;
80315;SDS011;71201;47.064;15.448;2023-11-21T10:27:13;8.90;;;4.37;;
80315;SDS011;71201;47.064;15.448;2023-11-21T10:29:39;9.93;;;4.00;;
80315;SDS011;71201;47.064;15.448;2023-11-21T10:32:04;6.22;;;4.28;;
80315;SDS011;71201;47.064;15.448;2023-11-21T10:34:30;7.78;;;4.70;;
80315;SDS011;71201;47.064;15.448;2023-11-21T10:36:55;12.48;;;5.22;;
80315;SDS011;71201;47.064;15.448;2023-11-21T10:39:23;8.75;;;4.57;;
80315;SDS011;71201;47.064;15.448;2023-11-21T10:41:49;7.30;;;4.53;;
80315;SDS011;71201;47.064;15.448;2023-11-21T10:44:15;7.95;;;4.13;;
80315;SDS011;71201;47.064;15.448;2023-11-21T10:46:49;8.63;;;4.43;;
80315;SDS011;71201;47.064;15.448;2023-11-21T10:49:16;8.10;;;4.55;;
80315;SDS011;71201;47.064;15.448;2023-11-21T10:51:43;7.28;;;3.95;;
80315;SDS011;71201;47.064;15.448;2023-11-21T10:54:08;8.15;;;4.60;;
80315;SDS011;71201;47.064;15.448;2023-11-21T10:56:34;5.17;;;3.50;;
80315;SDS011;71201;47.064;15.448;2023-11-21T10:59:05;7.53;;;4.50;;
80315;SDS011;71201;47.064;15.448;2023-11-21T11:01:32;7.60;;;5.13;;
80315;SDS011;71201;47.064;15.448;2023-11-21T11:03:58;7.80;;;3.95;;
80315;SDS011;71201;47.064;15.448;2023-11-21T11:06:23;7.82;;;4.45;;
80315;SDS011;71201;47.064;15.448;2023-11-21T11:08:51;7.50;;;4.63;;
80315;SDS011;71201;47.064;15.448;2023-11-21T11:11:16;8.93;;;4.53;;
80315;SDS011;71201;47.064;15.448;2023-11-21T11:13:43;10.30;;;5.47;;
80315;SDS011;71201;47.064;15.448;2023-11-21T11:16:09;5.38;;;3.67;;
80315;SDS011;71201;47.064;15.448;2023-11-21T11:18:35;8.13;;;4.43;;
80315;SDS011;71201;47.064;15.448;2023-11-21T11:24:00;7.28;;;3.38;;
80315;SDS011;71201;47.064;15.448;2023-11-21T11:31:40;7.88;;;3.92;;
80315;SDS011;71201;47.064;15.448;2023-11-21T11:37:00;6.72;;;3.67;;
80315;SDS011;71201;47.064;15.448;2023-11-21T11:39:31;6.95;;;4.03;;
80315;SDS011;71201;47.064;15.448;2023-11-21T11:41:57;11.98;;;4.47;;
80315;SDS011;71201;47.064;15.448;2023-11-21T11:47:14;8.18;;;3.50;;
80315;SDS011;71201;47.064;15.448;2023-11-21T11:49:54;7.47;;;4.25;;
80315;SDS011;71201;47.064;15.448;2023-11-21T11:52:33;7.97;;;4.95;;
80315;SDS011;71201;47.064;15.448;2023-11-21T11:54:59;8.43;;;5.18;;
80315;SDS011;71201;47.064;15.448;2023-11-21T11:57:25;7.68;;;4.50;;
80315;SDS011;71201;47.064;15.448;2023-11-21T12:00:10;7.18;;;4.60;;
80315;SDS011;71201;47.064;15.448;2023-11-21T12:02:41;7.45;;;3.70;;
80315;SDS011;71201;47.064;15.448;2023-11-21T12:05:10;8.40;;;4.05;;
80315;SDS011;71201;47.064;15.448;2023-11-21T12:07:46;6.15;;;4.18;;
80315;SDS011;71201;47.064;15.448;2023-11-21T12:10:13;8.73;;;3.92;;
80315;SDS011;71201;47.064;15.448;2023-11-21T12:12:41;9.13;;;4.25;;
80315;SDS011;71201;47.064;15.448;2023-11-21T12:15:06;9.25;;;3.30;;
80315;SDS011;71201;47.064;15.448;2023-11-21T12:17:32;8.25;;;4.22;;
80315;SDS011;71201;47.064;15.448;2023-11-21T12:20:04;10.63;;;5.03;;
80315;SDS011;71201;47.064;15.448;2023-11-21T12:22:30;7.82;;;4.22;;
80315;SDS011;71201;47.064;15.448;2023-11-21T12:24:56;7.50;;;4.20;;
80315;SDS011;71201;47.064;15.448;2023-11-21T12:27:21;7.70;;;4.80;;
80315;SDS011;71201;47.064;15.448;2023-11-21T12:29:46;8.77;;;4.83;;
80315;SDS011;71201;47.064;15.448;2023-11-21T12:32:11;10.30;;;5.50;;
80315;SDS011;71201;47.064;15.448;2023-11-21T12:34:40;10.15;;;5.10;;
80315;SDS011;71201;47.064;15.448;2023-11-21T12:37:05;8.47;;;4.97;;
80315;SDS011;71201;47.064;15.448;2023-11-21T12:39:30;8.32;;;4.43;;
80315;SDS011;71201;47.064;15.448;2023-11-21T12:41:56;7.73;;;4.37;;
80315;SDS011;71201;47.064;15.448;2023-11-21T12:44:21;8.68;;;4.90;;
80315;SDS011;71201;47.064;15.448;2023-11-21T12:46:48;10.73;;;4.28;;
80315;SDS011;71201;47.064;15.448;2023-11-21T12:49:14;8.57;;;4.88;;
80315;SDS011;71201;47.064;15.448;2023-11-21T12:51:43;10.07;;;5.05;;
80315;SDS011;71201;47.064;15.448;2023-11-21T12:54:08;11.98;;;5.28;;
80315;SDS011;71201;47.064;15.448;2023-11-21T12:56:37;13.77;;;4.95;;
80315;SDS011;71201;47.064;15.448;2023-11-21T12:59:03;12.20;;;5.68;;
80315;SDS011;71201;47.064;15.448;2023-11-21T13:01:29;11.02;;;5.43;;
80315;SDS011;71201;47.064;15.448;2023-11-21T13:03:56;17.42;;;8.18;;
80315;SDS011;71201;47.064;15.448;2023-11-21T13:06:22;12.68;;;6.07;;
80315;SDS011;71201;47.064;15.448;2023-11-21T13:08:49;19.45;;;6.28;;
80315;SDS011;71201;47.064;15.448;2023-11-21T13:11:15;12.27;;;6.00;;
80315;SDS011;71201;47.064;15.448;2023-11-21T13:13:41;14.17;;;6.73;;
80315;SDS011;71201;47.064;15.448;2023-11-21T13:16:07;13.48;;;6.28;;
80315;SDS011;71201;47.064;15.448;2023-11-21T13:18:33;11.43;;;6.05;;
80315;SDS011;71201;47.064;15.448;2023-11-21T13:20:59;11.27;;;5.70;;
80315;SDS011;71201;47.064;15.448;2023-11-21T13:23:24;9.27;;;5.63;;
80315;SDS011;71201;47.064;15.448;2023-11-21T13:25:51;13.25;;;6.57;;
80315;SDS011;71201;47.064;15.448;2023-11-21T13:28:16;8.55;;;6.03;;
80315;SDS011;71201;47.064;15.448;2023-11-21T13:30:43;9.98;;;5.47;;
80315;SDS011;71201;47.064;15.448;2023-11-21T13:33:09;13.95;;;5.50;;
80315;SDS011;71201;47.064;15.448;2023-11-21T13:35:37;11.80;;;5.90;;
80315;SDS011;71201;47.064;15.448;2023-11-21T13:38:05;11.15;;;5.18;;
80315;SDS011;71201;47.064;15.448;2023-11-21T13:40:31;13.93;;;5.68;;
80315;SDS011;71201;47.064;15.448;2023-11-21T13:42:59;11.55;;;6.35;;
80315;SDS011;71201;47.064;15.448;2023-11-21T13:45:25;8.02;;;5.18;;
80315;SDS011;71201;47.064;15.448;2023-11-21T13:47:52;10.57;;;6.07;;
80315;SDS011;71201;47.064;15.448;2023-11-21T13:50:22;13.80;;;6.20;;
80315;SDS011;71201;47.064;15.448;2023-11-21T13:52:49;12.10;;;7.00;;
80315;SDS011;71201;47.064;15.448;2023-11-21T13:55:17;16.65;;;6.68;;
80315;SDS011;71201;47.064;15.448;2023-11-21T13:57:43;14.75;;;6.07;;
80315;SDS011;71201;47.064;15.448;2023-11-21T14:00:10;12.50;;;5.80;;
80315;SDS011;71201;47.064;15.448;2023-11-21T14:02:56;9.85;;;5.25;;
80315;SDS011;71201;47.064;15.448;2023-11-21T14:05:25;11.88;;;6.18;;
80315;SDS011;71201;47.064;15.448;2023-11-21T14:07:54;11.55;;;5.68;;
80315;SDS011;71201;47.064;15.448;2023-11-21T14:10:20;11.80;;;7.05;;
80315;SDS011;71201;47.064;15.448;2023-11-21T14:12:49;13.98;;;6.60;;
80315;SDS011;71201;47.064;15.448;2023-11-21T14:15:14;11.60;;;6.47;;
80315;SDS011;71201;47.064;15.448;2023-11-21T14:17:43;13.02;;;6.28;;
80315;SDS011;71201;47.064;15.448;2023-11-21T14:20:10;10.65;;;5.97;;
80315;SDS011;71201;47.064;15.448;2023-11-21T14:22:41;10.93;;;6.55;;
80315;SDS011;71201;47.064;15.448;2023-11-21T14:25:06;11.88;;;6.03;;
80315;SDS011;71201;47.064;15.448;2023-11-21T14:27:31;9.80;;;5.97;;
80315;SDS011;71201;47.064;15.448;2023-11-21T14:29:58;11.95;;;6.28;;
80315;SDS011;71201;47.064;15.448;2023-11-21T14:32:24;9.93;;;5.85;;
80315;SDS011;71201;47.064;15.448;2023-11-21T14:34:50;13.10;;;6.38;;
80315;SDS011;71201;47.064;15.448;2023-11-21T14:37:16;8.35;;;5.15;;
80315;SDS011;71201;47.064;15.448;2023-11-21T14:39:41;9.70;;;5.27;;
80315;SDS011;71201;47.064;15.448;2023-11-21T14:42:10;9.80;;;5.60;;
80315;SDS011;71201;47.064;15.448;2023-11-21T14:44:35;9.70;;;5.57;;
80315;SDS011;71201;47.064;15.448;2023-11-21T14:47:05;10.27;;;5.30;;
80315;SDS011;71201;47.064;15.448;2023-11-21T15:06:38;9.10;;;5.22;;
80315;SDS011;71201;47.064;15.448;2023-11-21T15:18:08;10.40;;;5.70;;
80315;SDS011;71201;47.064;15.448;2023-11-21T15:34:24;15.38;;;9.10;;
80315;SDS011;71201;47.064;15.448;2023-11-21T15:36:49;17.10;;;10.00;;
80315;SDS011;71201;47.064;15.448;2023-11-21T15:39:16;16.15;;;8.25;;
80315;SDS011;71201;47.064;15.448;2023-11-21T15:41:41;19.60;;;8.07;;
80315;SDS011;71201;47.064;15.448;2023-11-21T15:48:59;15.57;;;8.95;;
80315;SDS011;71201;47.064;15.448;2023-11-21T15:51:24;21.77;;;9.27;;
80315;SDS011;71201;47.064;15.448;2023-11-21T15:58:41;15.77;;;9.73;;
80315;SDS011;71201;47.064;15.448;2023-11-21T16:18:20;16.20;;;7.55;;
80315;SDS011;71201;47.064;15.448;2023-11-21T16:37:51;22.50;;;8.35;;
80315;SDS011;71201;47.064;15.448;2023-11-21T16:40:17;19.90;;;9.10;;
80315;SDS011;71201;47.064;15.448;2023-11-21T16:42:44;18.50;;;8.38;;
80315;SDS011;71201;47.064;15.448;2023-11-21T16:45:09;17.02;;;8.77;;
80315;SDS011;71201;47.064;15.448;2023-11-21T16:47:34;15.80;;;8.13;;
80315;SDS011;71201;47.064;15.448;2023-11-21T16:49:59;16.40;;;8.87;;
80315;SDS011;71201;47.064;15.448;2023-11-21T16:52:25;17.53;;;8.27;;
80315;SDS011;71201;47.064;15.448;2023-11-21T16:54:50;13.83;;;8.37;;
80315;SDS011;71201;47.064;15.448;2023-11-21T16:57:16;16.15;;;9.05;;
80315;SDS011;71201;47.064;15.448;2023-11-21T16:59:41;21.02;;;9.93;;
80315;SDS011;71201;47.064;15.448;2023-11-21T17:02:06;20.15;;;8.95;;
80315;SDS011;71201;47.064;15.448;2023-11-21T17:04:34;18.13;;;9.57;;
80315;SDS011;71201;47.064;15.448;2023-11-21T17:06:59;14.05;;;7.85;;
80315;SDS011;71201;47.064;15.448;2023-11-21T17:09:24;14.73;;;7.17;;
80315;SDS011;71201;47.064;15.448;2023-11-21T17:11:50;17.90;;;7.63;;
80315;SDS011;71201;47.064;15.448;2023-11-21T17:14:16;11.77;;;6.88;;
80315;SDS011;71201;47.064;15.448;2023-11-21T17:16:41;17.57;;;7.30;;
80315;SDS011;71201;47.064;15.448;2023-11-21T17:19:09;11.60;;;7.18;;
80315;SDS011;71201;47.064;15.448;2023-11-21T17:21:34;13.20;;;6.40;;
80315;SDS011;71201;47.064;15.448;2023-11-21T17:23:59;12.77;;;6.55;;
80315;SDS011;71201;47.064;15.448;2023-11-21T17:26:28;13.02;;;6.70;;
80315;SDS011;71201;47.064;15.448;2023-11-21T17:28:54;13.40;;;7.13;;
80315;SDS011;71201;47.064;15.448;2023-11-21T17:31:23;12.98;;;7.13;;
80315;SDS011;71201;47.064;15.448;2023-11-21T17:33:48;11.77;;;6.33;;
80315;SDS011;71201;47.064;15.448;2023-11-21T17:36:13;15.90;;;8.43;;
80315;SDS011;71201;47.064;15.448;2023-11-21T17:38:40;12.65;;;6.90;;
80315;SDS011;71201;47.064;15.448;2023-11-21T17:41:05;14.65;;;7.45;;
80315;SDS011;71201;47.064;15.448;2023-11-21T17:43:30;12.30;;;7.27;;
80315;SDS011;71201;47.064;15.448;2023-11-21T17:46:04;15.65;;;8.05;;
80315;SDS011;71201;47.064;15.448;2023-11-21T17:48:29;12.50;;;7.63;;
80315;SDS011;71201;47.064;15.448;2023-11-21T17:50:55;18.30;;;8.25;;
80315;SDS011;71201;47.064;15.448;2023-11-21T17:53:21;21.48;;;10.20;;
80315;SDS011;71201;47.064;15.448;2023-11-21T17:55:47;21.27;;;11.32;;
80315;SDS011;71201;47.064;15.448;2023-11-21T17:58:12;18.27;;;9.37;;
80315;SDS011;71201;47.064;15.448;2023-11-21T18:00:38;18.00;;;9.47;;
80315;SDS011;71201;47.064;15.448;2023-11-21T18:03:04;17.85;;;8.88;;
80315;SDS011;71201;47.064;15.448;2023-11-21T18:05:29;16.27;;;9.20;;
80315;SDS011;71201;47.064;15.448;2023-11-21T18:07:55;15.93;;;9.18;;
80315;SDS011;71201;47.064;15.448;2023-11-21T18:10:20;16.05;;;8.85;;
80315;SDS011;71201;47.064;15.448;2023-11-21T18:12:46;17.50;;;9.07;;
80315;SDS011;71201;47.064;15.448;2023-11-21T18:15:11;25.93;;;11.03;;
80315;SDS011;71201;47.064;15.448;2023-11-21T18:17:39;19.08;;;10.07;;
80315;SDS011;71201;47.064;15.448;2023-11-21T18:20:05;16.85;;;9.30;;
80315;SDS011;71201;47.064;15.448;2023-11-21T18:22:30;18.02;;;9.65;;
80315;SDS011;71201;47.064;15.448;2023-11-21T18:24:56;17.58;;;8.90;;
80315;SDS011;71201;47.064;15.448;2023-11-21T18:27:22;19.92;;;9.55;;
80315;SDS011;71201;47.064;15.448;2023-11-21T18:29:55;19.15;;;9.80;;
80315;SDS011;71201;47.064;15.448;2023-11-21T18:32:21;17.60;;;9.25;;
80315;SDS011;71201;47.064;15.448;2023-11-21T18:34:48;16.33;;;9.27;;
80315;SDS011;71201;47.064;15.448;2023-11-21T18:37:14;18.25;;;8.85;;
80315;SDS011;71201;47.064;15.448;2023-11-21T18:39:39;23.73;;;10.17;;
80315;SDS011;71201;47.064;15.448;2023-11-21T18:42:05;14.03;;;8.37;;
80315;SDS011;71201;47.064;15.448;2023-11-21T18:44:30;19.40;;;8.68;;
80315;SDS011;71201;47.064;15.448;2023-11-21T18:46:55;18.33;;;8.43;;
80315;SDS011;71201;47.064;15.448;2023-11-21T18:49:20;17.90;;;9.57;;
80315;SDS011;71201;47.064;15.448;2023-11-21T18:51:46;19.95;;;8.98;;
80315;SDS011;71201;47.064;15.448;2023-11-21T18:54:13;14.93;;;8.57;;
80315;SDS011;71201;47.064;15.448;2023-11-21T18:56:38;17.27;;;8.88;;
80315;SDS011;71201;47.064;15.448;2023-11-21T18:59:03;19.47;;;8.63;;
80315;SDS011;71201;47.064;15.448;2023-11-21T19:01:33;17.83;;;8.43;;
80315;SDS011;71201;47.064;15.448;2023-11-21T19:03:58;17.77;;;9.20;;
80315;SDS011;71201;47.064;15.448;2023-11-21T19:06:23;15.02;;;8.95;;
80315;SDS011;71201;47.064;15.448;2023-11-21T19:08:50;18.58;;;9.43;;
80315;SDS011;71201;47.064;15.448;2023-11-21T19:11:15;19.55;;;9.27;;
80315;SDS011;71201;47.064;15.448;2023-11-21T19:13:40;18.42;;;8.20;;
80315;SDS011;71201;47.064;15.448;2023-11-21T19:16:06;15.25;;;8.07;;
80315;SDS011;71201;47.064;15.448;2023-11-21T19:18:31;13.10;;;8.33;;
80315;SDS011;71201;47.064;15.448;2023-11-21T19:20:56;16.80;;;8.63;;
80315;SDS011;71201;47.064;15.448;2023-11-21T19:23:22;15.48;;;8.15;;
80315;SDS011;71201;47.064;15.448;2023-11-21T19:25:47;17.02;;;8.38;;
80315;SDS011;71201;47.064;15.448;2023-11-21T19:28:13;18.38;;;8.25;;
80315;SDS011;71201;47.064;15.448;2023-11-21T19:30:38;14.73;;;7.93;;
80315;SDS011;71201;47.064;15.448;2023-11-21T19:33:06;17.08;;;9.52;;
80315;SDS011;71201;47.064;15.448;2023-11-21T19:35:31;16.98;;;9.05;;
80315;SDS011;71201;47.064;15.448;2023-11-21T19:38:01;20.20;;;9.90;;
80315;SDS011;71201;47.064;15.448;2023-11-21T19:40:26;15.23;;;7.57;;
80315;SDS011;71201;47.064;15.448;2023-11-21T19:42:52;15.57;;;8.82;;
80315;SDS011;71201;47.064;15.448;2023-11-21T19:45:17;15.80;;;8.70;;
80315;SDS011;71201;47.064;15.448;2023-11-21T19:47:43;16.02;;;9.32;;
80315;SDS011;71201;47.064;15.448;2023-11-21T19:50:09;19.60;;;9.70;;
80315;SDS011;71201;47.064;15.448;2023-11-21T19:52:35;15.90;;;8.90;;
80315;SDS011;71201;47.064;15.448;2023-11-21T19:55:01;17.00;;;9.02;;
80315;SDS011;71201;47.064;15.448;2023-11-21T19:57:26;20.98;;;9.90;;
80315;SDS011;71201;47.064;15.448;2023-11-21T19:59:51;21.30;;;9.80;;
80315;SDS011;71201;47.064;15.448;2023-11-21T20:02:16;17.92;;;9.82;;
80315;SDS011;71201;47.064;15.448;2023-11-21T20:04:42;20.30;;;9.00;;